Time,TemperatureF,DewpointF,PressureIn,WindDirection,WindDirectionDegrees,WindSpeedMPH,WindSpeedGustMPH,Humidity,HourlyPrecipIn,Conditions,Clouds,dailyrainin,SoftwareType,DateUTC
2013-02-23 00:03:00,50.0,49.0,30.04,NNE,21,2.0,3.0,98,0.00,,,0.57,,2013-02-23 05:03:00,
2013-02-23 00:12:00,50.0,49.0,30.04,NNE,21,2.0,3.0,98,0.00,,,0.57,,2013-02-23 05:12:00,
2013-02-23 00:23:00,49.0,48.0,30.02,North,354,1.0,5.0,98,0.00,,,0.57,,2013-02-23 05:23:00,
2013-02-23 00:33:00,49.0,48.0,30.02,NNE,21,1.0,3.0,98,0.00,,,0.57,,2013-02-23 05:33:00,
2013-02-23 00:42:00,49.0,48.0,30.02,NNE,21,1.0,3.0,98,0.00,,,0.57,,2013-02-23 05:42:00,
2013-02-23 00:52:00,49.0,48.0,30.01,NNE,19,3.0,3.0,98,0.00,,,0.57,,2013-02-23 05:52:00,
2013-02-23 01:02:00,49.0,48.0,30.01,NNW,335,2.0,5.0,98,0.01,,,0.58,,2013-02-23 06:02:00,
2013-02-23 01:11:00,49.0,48.0,30.01,NNW,335,2.0,5.0,98,0.01,,,0.58,,2013-02-23 06:11:00,
2013-02-23 01:23:00,49.0,48.0,30.01,North,359,2.0,5.0,98,0.01,,,0.58,,2013-02-23 06:23:00,
2013-02-23 01:32:00,49.0,48.0,30.01,NNW,342,3.0,6.0,98,0.02,,,0.59,,2013-02-23 06:32:00,
2013-02-23 01:42:00,49.0,48.0,30.01,NNW,342,3.0,6.0,98,0.02,,,0.59,,2013-02-23 06:42:00,
2013-02-23 01:51:00,49.0,48.0,30.01,NNW,342,3.0,6.0,98,0.02,,,0.59,,2013-02-23 06:51:00,
2013-02-23 02:01:00,49.0,48.0,30.01,NW,319,2.0,5.0,98,0.02,,,0.60,,2013-02-23 07:01:00,
2013-02-23 02:11:00,49.0,48.0,30.01,NW,319,2.0,5.0,98,0.02,,,0.60,,2013-02-23 07:11:00,
2013-02-23 02:21:00,48.0,47.0,30.01,NNW,329,2.0,6.0,98,0.02,,,0.60,,2013-02-23 07:21:00,
2013-02-23 02:32:00,47.0,46.0,30.00,WNW,297,1.0,7.0,97,0.02,,,0.61,,2013-02-23 07:32:00,
2013-02-23 02:42:00,47.0,46.0,30.00,WNW,297,1.0,7.0,97,0.02,,,0.61,,2013-02-23 07:42:00,
2013-02-23 02:52:00,47.0,46.0,29.99,North,354,2.0,8.0,97,0.02,,,0.61,,2013-02-23 07:52:00,
2013-02-23 03:01:00,47.0,46.0,29.97,NNW,331,1.0,5.0,98,0.02,,,0.62,,2013-02-23 08:01:00,
2013-02-23 03:11:00,47.0,46.0,29.97,NNW,331,1.0,5.0,98,0.02,,,0.62,,2013-02-23 08:11:00,
2013-02-23 03:21:00,47.0,46.0,29.95,North,354,2.0,5.0,98,0.03,,,0.63,,2013-02-23 08:21:00,
2013-02-23 03:32:00,47.0,46.0,29.95,North,354,2.0,5.0,98,0.03,,,0.63,,2013-02-23 08:32:00,
2013-02-23 03:42:00,47.0,46.0,29.95,North,354,2.0,5.0,98,0.03,,,0.63,,2013-02-23 08:42:00,
2013-02-23 03:53:00,47.0,46.0,29.94,NNE,16,1.0,3.0,98,0.04,,,0.66,,2013-02-23 08:53:00,
2013-02-23 04:02:00,47.0,46.0,29.94,NNE,16,1.0,3.0,98,0.04,,,0.66,,2013-02-23 09:02:00,
2013-02-23 04:11:00,47.0,46.0,29.94,NNE,16,1.0,3.0,98,0.04,,,0.66,,2013-02-23 09:11:00,
2013-02-23 04:22:00,47.0,47.0,29.93,NE,39,0.0,2.0,99,0.07,,,0.70,,2013-02-23 09:22:00,
2013-02-23 04:32:00,47.0,47.0,29.94,North,8,0.0,3.0,99,0.08,,,0.72,,2013-02-23 09:32:00,
2013-02-23 04:42:00,47.0,47.0,29.94,North,8,0.0,3.0,99,0.08,,,0.72,,2013-02-23 09:42:00,
2013-02-23 04:52:00,47.0,47.0,29.94,North,359,2.0,3.0,99,0.09,,,0.74,,2013-02-23 09:52:00,
2013-02-23 05:01:00,47.0,47.0,29.93,NNW,347,2.0,7.0,99,0.11,,,0.77,,2013-02-23 10:01:00,
2013-02-23 05:11:00,47.0,47.0,29.93,NNW,347,2.0,7.0,99,0.11,,,0.77,,2013-02-23 10:11:00,
2013-02-23 05:21:00,47.0,47.0,29.93,NNW,347,2.0,7.0,99,0.11,,,0.77,,2013-02-23 10:21:00,
2013-02-23 05:32:00,47.0,46.0,29.94,North,8,3.0,6.0,98,0.07,,,0.77,,2013-02-23 10:32:00,
2013-02-23 05:42:00,47.0,46.0,29.94,North,8,3.0,6.0,98,0.07,,,0.77,,2013-02-23 10:42:00,
2013-02-23 05:52:00,47.0,46.0,29.94,North,8,3.0,6.0,98,0.07,,,0.77,,2013-02-23 10:52:00,
2013-02-23 06:02:00,46.0,45.0,29.93,NNE,14,3.0,7.0,98,0.07,,,0.84,,2013-02-23 11:02:00,
2013-02-23 06:11:00,46.0,45.0,29.93,NNE,14,3.0,7.0,98,0.07,,,0.84,,2013-02-23 11:11:00,
2013-02-23 06:22:00,46.0,45.0,29.95,NNE,28,3.0,6.0,98,0.14,,,0.91,,2013-02-23 11:22:00,
2013-02-23 06:32:00,46.0,45.0,29.93,ENE,72,3.0,6.0,98,0.27,,,1.04,,2013-02-23 11:32:00,
2013-02-23 06:42:00,46.0,45.0,29.93,ENE,72,3.0,6.0,98,0.27,,,1.04,,2013-02-23 11:42:00,
2013-02-23 06:52:00,46.0,45.0,29.94,NE,51,2.0,5.0,98,0.37,,,1.15,,2013-02-23 11:52:00,
2013-02-23 07:02:00,46.0,46.0,29.92,ENE,68,2.0,5.0,99,0.43,,,1.21,,2013-02-23 12:02:00,
2013-02-23 07:11:00,46.0,46.0,29.92,ENE,68,2.0,5.0,99,0.43,,,1.21,,2013-02-23 12:11:00,
2013-02-23 07:21:00,46.0,46.0,29.92,North,9,2.0,5.0,99,0.41,,,1.32,,2013-02-23 12:21:00,
2013-02-23 07:32:00,47.0,47.0,29.91,East,94,1.0,3.0,99,0.35,,,1.42,,2013-02-23 12:32:00,
2013-02-23 07:42:00,47.0,47.0,29.91,East,94,1.0,3.0,99,0.35,,,1.42,,2013-02-23 12:42:00,
2013-02-23 07:52:00,47.0,47.0,29.91,North,4,1.0,3.0,99,0.30,,,1.45,,2013-02-23 12:52:00,
2013-02-23 08:02:00,47.0,47.0,29.93,NNW,341,0.0,3.0,99,0.24,,,1.50,,2013-02-23 13:02:00,
2013-02-23 08:12:00,47.0,47.0,29.93,NNW,341,0.0,3.0,99,0.24,,,1.50,,2013-02-23 13:12:00,
2013-02-23 08:22:00,48.0,48.0,29.93,ESE,116,1.0,3.0,99,0.21,,,1.53,,2013-02-23 13:22:00,
2013-02-23 08:32:00,48.0,48.0,29.93,ESE,123,0.0,3.0,99,0.11,,,1.53,,2013-02-23 13:32:00,
2013-02-23 08:42:00,48.0,48.0,29.93,ESE,123,0.0,3.0,99,0.11,,,1.53,,2013-02-23 13:42:00,
2013-02-23 08:52:00,48.0,48.0,29.92,ESE,122,1.0,3.0,99,0.08,,,1.53,,2013-02-23 13:52:00,
2013-02-23 09:02:00,49.0,49.0,29.93,SE,127,1.0,3.0,99,0.03,,,1.53,,2013-02-23 14:02:00,
2013-02-23 09:11:00,49.0,49.0,29.93,SE,127,1.0,3.0,99,0.03,,,1.53,,2013-02-23 14:11:00,
2013-02-23 09:22:00,49.0,49.0,29.94,East,79,0.0,2.0,100,0.01,,,1.54,,2013-02-23 14:22:00,
2013-02-23 09:32:00,50.0,50.0,29.92,East,94,2.0,5.0,99,0.02,,,1.55,,2013-02-23 14:32:00,
2013-02-23 09:42:00,50.0,50.0,29.92,East,94,2.0,5.0,99,0.02,,,1.55,,2013-02-23 14:42:00,
2013-02-23 09:52:00,50.0,50.0,29.93,NE,53,0.0,6.0,100,0.04,,,1.57,,2013-02-23 14:52:00,
2013-02-23 10:02:00,50.0,50.0,29.95,NNW,335,1.0,6.0,99,0.11,,,1.64,,2013-02-23 15:02:00,
2013-02-23 10:11:00,50.0,50.0,29.95,NNW,335,1.0,6.0,99,0.11,,,1.64,,2013-02-23 15:11:00,
2013-02-23 10:22:00,49.0,49.0,29.95,WNW,289,1.0,6.0,99,0.18,,,1.72,,2013-02-23 15:22:00,
2013-02-23 10:32:00,49.0,49.0,29.95,North,8,1.0,3.0,99,0.30,,,1.85,,2013-02-23 15:32:00,
2013-02-23 10:42:00,49.0,49.0,29.95,North,8,1.0,3.0,99,0.30,,,1.85,,2013-02-23 15:42:00,
2013-02-23 10:52:00,49.0,49.0,29.94,South,173,2.0,3.0,99,0.41,,,1.98,,2013-02-23 15:52:00,
2013-02-23 11:01:00,50.0,50.0,29.93,SE,139,0.0,3.0,99,0.45,,,2.09,,2013-02-23 16:01:00,
2013-02-23 11:11:00,50.0,50.0,29.93,SE,139,0.0,3.0,99,0.45,,,2.09,,2013-02-23 16:11:00,
2013-02-23 11:22:00,50.0,50.0,29.93,SE,140,0.0,2.0,99,0.44,,,2.16,,2013-02-23 16:22:00,
2013-02-23 11:32:00,51.0,51.0,29.93,ENE,72,0.0,1.0,100,0.45,,,2.30,,2013-02-23 16:32:00,
2013-02-23 11:42:00,51.0,51.0,29.93,ENE,72,0.0,1.0,100,0.45,,,2.30,,2013-02-23 16:42:00,
2013-02-23 11:52:00,52.0,52.0,29.94,SSW,211,1.0,2.0,100,0.35,,,2.33,,2013-02-23 16:52:00,
2013-02-23 12:01:00,52.0,52.0,29.93,SE,137,0.0,1.0,100,0.46,,,2.55,,2013-02-23 17:01:00,
2013-02-23 12:11:00,52.0,52.0,29.93,SE,137,0.0,1.0,100,0.46,,,2.55,,2013-02-23 17:11:00,
2013-02-23 12:22:00,52.0,52.0,29.93,SE,137,0.0,1.0,100,0.46,,,2.55,,2013-02-23 17:22:00,
2013-02-23 12:32:00,53.0,53.0,29.93,SSE,168,2.0,3.0,100,0.42,,,2.72,,2013-02-23 17:32:00,
2013-02-23 12:42:00,53.0,53.0,29.93,SSE,168,2.0,3.0,100,0.42,,,2.72,,2013-02-23 17:42:00,
2013-02-23 12:52:00,53.0,53.0,29.91,East,82,1.0,2.0,100,0.44,,,2.77,,2013-02-23 17:52:00,
2013-02-23 13:02:00,54.0,54.0,29.91,East,95,0.0,1.0,100,0.27,,,2.68,,2013-02-23 18:02:00,
2013-02-23 13:12:00,54.0,54.0,29.91,East,95,0.0,1.0,100,0.27,,,2.68,,2013-02-23 18:12:00,
2013-02-23 13:22:00,54.0,54.0,29.91,ESE,110,0.0,2.0,100,0.21,,,2.69,,2013-02-23 18:22:00,
2013-02-23 13:32:00,55.0,55.0,29.90,ESE,112,0.0,0.0,100,0.14,,,2.69,,2013-02-23 18:32:00,
2013-02-23 13:42:00,55.0,55.0,29.90,ESE,112,0.0,0.0,100,0.14,,,2.69,,2013-02-23 18:42:00,
2013-02-23 13:52:00,56.0,56.0,29.91,South,177,0.0,2.0,100,0.06,,,2.45,,2013-02-23 18:52:00,
2013-02-23 14:01:00,59.0,59.0,29.89,SW,228,1.0,3.0,100,0.02,,,2.28,,2013-02-23 19:01:00,
2013-02-23 14:11:00,59.0,59.0,29.89,SW,228,1.0,3.0,100,0.02,,,2.28,,2013-02-23 19:11:00,
2013-02-23 14:21:00,60.0,60.0,29.88,South,170,2.0,7.0,100,0.02,,,2.29,,2013-02-23 19:21:00,
2013-02-23 14:32:00,61.0,61.0,29.88,SW,228,3.0,7.0,100,0.03,,,2.29,,2013-02-23 19:32:00,
2013-02-23 14:42:00,61.0,61.0,29.88,SW,228,3.0,7.0,100,0.03,,,2.29,,2013-02-23 19:42:00,
2013-02-23 14:52:00,61.0,61.0,29.85,SW,225,2.0,5.0,100,0.03,,,2.29,,2013-02-23 19:52:00,
2013-02-23 15:01:00,61.0,61.0,29.86,SW,217,2.0,5.0,100,0.03,,,2.29,,2013-02-23 20:01:00,
2013-02-23 15:11:00,61.0,61.0,29.86,SW,217,2.0,5.0,100,0.03,,,2.29,,2013-02-23 20:11:00,
2013-02-23 15:21:00,61.0,61.0,29.84,SSW,210,3.0,9.0,100,0.04,,,2.31,,2013-02-23 20:21:00,
2013-02-23 15:32:00,61.0,61.0,29.81,SSW,199,3.0,9.0,100,0.05,,,2.32,,2013-02-23 20:32:00,
2013-02-23 15:42:00,61.0,61.0,29.81,SSW,199,3.0,9.0,100,0.05,,,2.32,,2013-02-23 20:42:00,
2013-02-23 15:52:00,61.0,61.0,29.80,WSW,237,4.0,10.0,100,0.04,,,2.32,,2013-02-23 20:52:00,
2013-02-23 16:02:00,61.0,61.0,29.81,SSW,212,2.0,8.0,100,0.03,,,2.32,,2013-02-23 21:02:00,
2013-02-23 16:11:00,61.0,61.0,29.81,SSW,212,2.0,8.0,100,0.03,,,2.32,,2013-02-23 21:11:00,
2013-02-23 16:22:00,61.0,61.0,29.82,SW,226,3.0,7.0,100,0.01,,,2.32,,2013-02-23 21:22:00,
2013-02-23 16:32:00,61.0,61.0,29.83,NW,304,2.0,6.0,100,0.00,,,2.32,,2013-02-23 21:32:00,
2013-02-23 16:42:00,61.0,61.0,29.83,NW,304,2.0,6.0,100,0.00,,,2.32,,2013-02-23 21:42:00,
2013-02-23 16:52:00,61.0,61.0,29.84,WNW,286,2.0,5.0,100,0.00,,,2.32,,2013-02-23 21:52:00,
2013-02-23 17:02:00,61.0,61.0,29.84,WSW,247,1.0,3.0,99,0.00,,,2.32,,2013-02-23 22:02:00,
2013-02-23 17:11:00,61.0,61.0,29.84,WSW,247,1.0,3.0,99,0.00,,,2.32,,2013-02-23 22:11:00,
2013-02-23 17:22:00,61.0,61.0,29.82,WNW,285,1.0,3.0,99,0.01,,,2.33,,2013-02-23 22:22:00,
2013-02-23 17:32:00,61.0,61.0,29.84,West,279,1.0,2.0,99,0.01,,,2.33,,2013-02-23 22:32:00,
2013-02-23 17:42:00,61.0,61.0,29.84,West,279,1.0,2.0,99,0.01,,,2.33,,2013-02-23 22:42:00,
2013-02-23 17:52:00,61.0,61.0,29.83,WSW,238,1.0,3.0,99,0.01,,,2.33,,2013-02-23 22:52:00,
2013-02-23 18:01:00,61.0,61.0,29.83,WSW,238,1.0,3.0,99,0.01,,,2.33,,2013-02-23 23:01:00,
2013-02-23 18:11:00,61.0,61.0,29.83,WSW,238,1.0,3.0,99,0.01,,,2.33,,2013-02-23 23:11:00,
2013-02-23 18:22:00,60.0,60.0,29.82,SW,217,0.0,1.0,99,0.00,,,2.33,,2013-02-23 23:22:00,
2013-02-23 18:32:00,60.0,60.0,29.83,SW,217,0.0,0.0,99,0.00,,,2.33,,2013-02-23 23:32:00,
2013-02-23 18:42:00,60.0,60.0,29.83,SW,217,0.0,0.0,99,0.00,,,2.33,,2013-02-23 23:42:00,
2013-02-23 18:52:00,60.0,60.0,29.83,SW,217,0.0,0.0,99,0.00,,,2.33,,2013-02-23 23:52:00,
2013-02-23 19:02:00,60.0,60.0,29.83,West,276,1.0,2.0,99,0.00,,,2.33,,2013-02-24 00:02:00,
2013-02-23 19:11:00,60.0,60.0,29.83,West,276,1.0,2.0,99,0.00,,,2.33,,2013-02-24 00:11:00,
2013-02-23 19:22:00,59.0,58.0,29.84,NW,326,1.0,3.0,98,0.00,,,2.33,,2013-02-24 00:22:00,
2013-02-23 19:32:00,58.0,57.0,29.85,NNW,341,1.0,3.0,98,0.00,,,2.33,,2013-02-24 00:32:00,
2013-02-23 19:42:00,58.0,57.0,29.85,NNW,341,1.0,3.0,98,0.00,,,2.33,,2013-02-24 00:42:00,
2013-02-23 19:52:00,56.0,55.0,29.86,NW,317,2.0,3.0,97,0.00,,,2.33,,2013-02-24 00:52:00,
2013-02-23 20:01:00,55.0,54.0,29.87,SSW,207,1.0,2.0,98,0.00,,,2.33,,2013-02-24 01:01:00,
2013-02-23 20:11:00,55.0,54.0,29.87,SSW,207,1.0,2.0,98,0.00,,,2.33,,2013-02-24 01:11:00,
2013-02-23 20:22:00,55.0,54.0,29.88,SSW,207,0.0,0.0,98,0.00,,,2.33,,2013-02-24 01:22:00,
2013-02-23 20:32:00,55.0,55.0,29.88,NW,305,1.0,3.0,99,0.00,,,2.33,,2013-02-24 01:32:00,
2013-02-23 20:42:00,55.0,55.0,29.88,NW,305,1.0,3.0,99,0.00,,,2.33,,2013-02-24 01:42:00,
2013-02-23 20:52:00,55.0,55.0,29.88,WSW,256,0.0,2.0,99,0.00,,,2.33,,2013-02-24 01:52:00,
2013-02-23 21:01:00,54.0,54.0,29.91,West,273,2.0,3.0,99,0.00,,,2.33,,2013-02-24 02:01:00,
2013-02-23 21:11:00,54.0,54.0,29.91,West,273,2.0,3.0,99,0.00,,,2.33,,2013-02-24 02:11:00,
2013-02-23 21:22:00,54.0,54.0,29.91,West,274,1.0,3.0,99,0.01,,,2.34,,2013-02-24 02:22:00,
2013-02-23 21:32:00,54.0,54.0,29.91,West,268,0.0,3.0,99,0.04,,,2.37,,2013-02-24 02:32:00,
2013-02-23 21:42:00,54.0,54.0,29.91,West,268,0.0,3.0,99,0.04,,,2.37,,2013-02-24 02:42:00,
2013-02-23 21:52:00,54.0,54.0,29.92,WSW,241,1.0,2.0,99,0.10,,,2.43,,2013-02-24 02:52:00,
2013-02-23 22:02:00,54.0,54.0,29.91,WSW,240,0.0,1.0,99,0.13,,,2.46,,2013-02-24 03:02:00,
2013-02-23 22:12:00,54.0,54.0,29.91,WSW,240,0.0,1.0,99,0.13,,,2.46,,2013-02-24 03:12:00,
2013-02-23 22:22:00,54.0,54.0,29.92,WSW,239,1.0,2.0,99,0.15,,,2.49,,2013-02-24 03:22:00,
2013-02-23 22:32:00,54.0,54.0,29.91,SE,127,0.0,2.0,100,0.13,,,2.53,,2013-02-24 03:32:00,
2013-02-23 22:42:00,54.0,54.0,29.91,SE,127,0.0,2.0,100,0.13,,,2.53,,2013-02-24 03:42:00,
2013-02-23 22:52:00,54.0,54.0,29.90,SE,128,0.0,2.0,99,0.13,,,2.55,,2013-02-24 03:52:00,
2013-02-23 23:02:00,55.0,55.0,29.88,SE,131,0.0,2.0,100,0.12,,,2.58,,2013-02-24 04:02:00,
2013-02-23 23:11:00,55.0,55.0,29.88,SE,131,0.0,2.0,100,0.12,,,2.58,,2013-02-24 04:11:00,
2013-02-23 23:22:00,55.0,55.0,29.87,SE,131,1.0,2.0,100,0.09,,,2.58,,2013-02-24 04:22:00,
2013-02-23 23:32:00,55.0,55.0,29.79,SE,139,3.0,5.0,100,0.08,,,2.61,,2013-02-24 04:32:00,
2013-02-23 23:42:00,55.0,55.0,29.79,SE,139,3.0,5.0,100,0.08,,,2.61,,2013-02-24 04:42:00,
2013-02-23 23:52:00,56.0,56.0,29.78,SSE,158,2.0,8.0,100,0.07,,,2.62,,2013-02-24 04:52:00,